createdAt,value
2017-01-23T00:00:27.102Z,1020.5
2017-01-23T00:01:27.116Z,1020.49
2017-01-23T00:02:27.129Z,1020.51
2017-01-23T00:03:27.142Z,1020.5
2017-01-23T00:04:27.157Z,1020.53
2017-01-23T00:05:27.168Z,1020.54
2017-01-23T00:06:27.182Z,1020.5
2017-01-23T00:07:27.196Z,1020.52
2017-01-23T00:08:27.210Z,1020.53
2017-01-23T00:09:27.222Z,1020.52
2017-01-23T00:10:27.236Z,1020.55
2017-01-23T00:11:27.249Z,1020.5
2017-01-23T00:13:27.277Z,1020.5
2017-01-23T00:14:27.289Z,1020.48
2017-01-23T00:15:27.303Z,1020.48
2017-01-23T00:16:27.315Z,1020.48
2017-01-23T00:17:27.329Z,1020.45
2017-01-23T00:18:27.343Z,1020.46
2017-01-23T00:19:27.356Z,1020.42
2017-01-23T00:20:27.368Z,1020.43
2017-01-23T00:21:27.383Z,1020.4
2017-01-23T00:22:27.396Z,1020.41
2017-01-23T00:23:27.409Z,1020.39
2017-01-23T00:24:27.422Z,1020.43
2017-01-23T00:25:27.436Z,1020.42
2017-01-23T00:26:27.451Z,1020.45
2017-01-23T00:27:27.462Z,1020.4
2017-01-23T00:29:27.488Z,1020.42
2017-01-23T00:30:27.502Z,1020.39
2017-01-23T00:31:27.516Z,1020.41
2017-01-23T00:32:27.529Z,1020.35
2017-01-23T00:33:27.542Z,1020.31
2017-01-23T00:34:27.555Z,1020.31
2017-01-23T00:35:27.569Z,1020.27
2017-01-23T00:36:27.582Z,1020.26
2017-01-23T00:37:27.595Z,1020.27
2017-01-23T00:38:27.608Z,1020.26
2017-01-23T00:39:27.622Z,1020.23
2017-01-23T00:40:27.635Z,1020.24
2017-01-23T00:41:27.649Z,1020.22
2017-01-23T00:42:27.664Z,1020.25
2017-01-23T00:44:27.690Z,1020.23
2017-01-23T00:45:27.702Z,1020.26
2017-01-23T00:46:27.715Z,1020.18
2017-01-23T00:47:27.729Z,1020.16
2017-01-23T00:48:27.742Z,1020.16
2017-01-23T00:49:27.755Z,1020.14
2017-01-23T00:50:27.768Z,1020.09
2017-01-23T00:51:27.781Z,1020.14
2017-01-23T00:52:27.794Z,1020.13
2017-01-23T00:53:27.807Z,1020.14
2017-01-23T00:54:27.821Z,1020.11
2017-01-23T00:55:27.834Z,1020.13
2017-01-23T00:56:27.847Z,1020.1
2017-01-23T00:57:27.860Z,1020.14
2017-01-23T00:58:27.874Z,1020.12
2017-01-23T00:59:27.887Z,1020.14
2017-01-23T01:00:27.904Z,1020.13
2017-01-23T01:01:27.913Z,1020.1
2017-01-23T01:02:27.926Z,1020.18
2017-01-23T01:03:27.939Z,1020.15
2017-01-23T01:04:27.953Z,1020.13
2017-01-23T01:05:27.966Z,1020.1
2017-01-23T01:06:27.979Z,1020.14
2017-01-23T01:07:27.991Z,1020.1
2017-01-23T01:08:28.005Z,1020.1
2017-01-23T01:09:28.018Z,1020.1
2017-01-23T01:10:28.032Z,1020.09
2017-01-23T01:11:28.045Z,1020.1
2017-01-23T01:12:28.057Z,1020.08
2017-01-23T01:13:28.072Z,1020.07
2017-01-23T01:14:28.083Z,1020.08
2017-01-23T01:16:28.111Z,1020.07
2017-01-23T01:17:28.123Z,1020.06
2017-01-23T01:18:28.137Z,1020.11
2017-01-23T01:19:28.150Z,1020.06
2017-01-23T01:20:28.164Z,1020.05
2017-01-23T01:21:28.177Z,1020.09
2017-01-23T01:22:28.189Z,1020.07
2017-01-23T01:23:28.203Z,1020.12
2017-01-23T01:24:28.217Z,1020.12
2017-01-23T01:25:28.230Z,1020.08
2017-01-23T01:26:28.243Z,1020.06
2017-01-23T01:27:28.257Z,1020.11
2017-01-23T01:28:28.271Z,1020.11
2017-01-23T01:29:28.284Z,1020.11
2017-01-23T01:30:28.297Z,1020.14
2017-01-23T01:32:28.324Z,1020.12
2017-01-23T01:33:28.338Z,1020.11
2017-01-23T01:34:28.350Z,1020.12
2017-01-23T01:35:28.364Z,1020.09
2017-01-23T01:36:28.378Z,1020.14
2017-01-23T01:37:28.390Z,1020.13
2017-01-23T01:38:28.404Z,1020.1
2017-01-23T01:39:28.417Z,1020.1
2017-01-23T01:40:28.429Z,1020.06
2017-01-23T01:41:28.443Z,1020.02
2017-01-23T01:42:28.457Z,1020.05
2017-01-23T01:43:28.471Z,1020.11
2017-01-23T01:44:28.484Z,1020.12
2017-01-23T01:45:28.496Z,1020.12
2017-01-23T01:46:28.511Z,1020.11
2017-01-23T01:48:28.536Z,1020.1
2017-01-23T01:49:28.550Z,1020.06
2017-01-23T01:50:28.563Z,1020.1
2017-01-23T01:51:28.577Z,1020.13
2017-01-23T01:52:28.590Z,1020.12
2017-01-23T01:53:28.603Z,1020.08
2017-01-23T01:54:28.617Z,1020.06
2017-01-23T01:55:28.629Z,1020.05
2017-01-23T01:56:28.643Z,1020.07
2017-01-23T01:57:28.656Z,1020.07
2017-01-23T01:58:28.669Z,1020.02
2017-01-23T01:59:28.681Z,1020.03
2017-01-23T02:00:28.696Z,1020.06
2017-01-23T02:01:28.709Z,1020.05
2017-01-23T02:02:28.721Z,1020.02
2017-01-23T02:04:28.748Z,1019.98
2017-01-23T02:05:28.761Z,1019.98
2017-01-23T02:06:28.774Z,1020.01
2017-01-23T02:07:28.787Z,1020.01
2017-01-23T02:08:28.801Z,1020.01
2017-01-23T02:09:28.813Z,1020.02
2017-01-23T02:10:28.826Z,1020.02
2017-01-23T02:11:28.840Z,1020
2017-01-23T02:12:28.853Z,1020.05
2017-01-23T02:13:28.865Z,1020.02
2017-01-23T02:14:28.879Z,1020.03
2017-01-23T02:15:28.893Z,1020.04
2017-01-23T02:16:28.907Z,1020.06
2017-01-23T02:17:28.920Z,1020.06
2017-01-23T02:19:28.947Z,1020.06
2017-01-23T02:20:28.959Z,1020.04
2017-01-23T02:21:28.972Z,1020.02
2017-01-23T02:22:28.987Z,1020
2017-01-23T02:23:29.000Z,1020
2017-01-23T02:24:29.012Z,1019.99
2017-01-23T02:25:29.025Z,1019.95
2017-01-23T02:26:29.039Z,1019.96
2017-01-23T02:27:29.052Z,1019.96
2017-01-23T02:28:29.065Z,1019.98
2017-01-23T02:29:29.080Z,1020
2017-01-23T02:30:29.092Z,1019.93
2017-01-23T02:31:29.105Z,1019.99
2017-01-23T02:32:29.118Z,1019.98
2017-01-23T02:33:29.138Z,1019.98
2017-01-23T02:34:29.145Z,1019.96
2017-01-23T02:35:29.158Z,1019.93
2017-01-23T02:36:29.170Z,1019.99
2017-01-23T02:37:29.185Z,1019.89
2017-01-23T02:38:29.197Z,1019.92
2017-01-23T02:39:29.210Z,1019.92
2017-01-23T02:40:29.224Z,1019.93
2017-01-23T02:41:29.238Z,1019.89
2017-01-23T02:42:29.250Z,1019.84
2017-01-23T02:43:29.267Z,1019.86
2017-01-23T02:44:29.278Z,1019.88
2017-01-23T02:45:29.291Z,1019.86
2017-01-23T02:46:29.303Z,1019.87
2017-01-23T02:47:29.331Z,1019.86
2017-01-23T02:48:29.330Z,1019.87
2017-01-23T02:49:29.343Z,1019.82
2017-01-23T02:51:29.371Z,1019.82
2017-01-23T02:52:29.384Z,1019.83
2017-01-23T02:53:29.397Z,1019.81
2017-01-23T02:54:29.411Z,1019.8
2017-01-23T02:55:29.424Z,1019.82
2017-01-23T02:56:29.438Z,1019.79
2017-01-23T02:57:29.451Z,1019.87
2017-01-23T02:58:29.464Z,1019.86
2017-01-23T02:59:29.478Z,1019.83
2017-01-23T03:00:29.490Z,1019.84
2017-01-23T03:01:29.504Z,1019.76
2017-01-23T03:02:29.517Z,1019.8
2017-01-23T03:03:29.531Z,1019.74
2017-01-23T03:04:29.543Z,1019.76
2017-01-23T03:05:29.556Z,1019.73
2017-01-23T03:07:29.585Z,1019.73
2017-01-23T03:08:29.598Z,1019.72
2017-01-23T03:09:29.611Z,1019.64
2017-01-23T03:10:29.627Z,1019.64
2017-01-23T03:11:29.637Z,1019.65
2017-01-23T03:12:29.650Z,1019.62
2017-01-23T03:13:29.665Z,1019.66
2017-01-23T03:14:29.677Z,1019.7
2017-01-23T03:15:29.691Z,1019.7
2017-01-23T03:16:29.704Z,1019.66
2017-01-23T03:17:29.717Z,1019.67
2017-01-23T03:18:29.731Z,1019.65
2017-01-23T03:19:29.743Z,1019.71
2017-01-23T03:20:29.757Z,1019.67
2017-01-23T03:21:29.770Z,1019.62
2017-01-23T03:23:29.797Z,1019.67
2017-01-23T03:24:29.814Z,1019.66
2017-01-23T03:25:29.824Z,1019.67
2017-01-23T03:26:29.836Z,1019.63
2017-01-23T03:27:29.850Z,1019.66
2017-01-23T03:28:29.863Z,1019.63
2017-01-23T03:29:29.906Z,1019.6
2017-01-23T03:30:29.889Z,1019.62
2017-01-23T03:31:29.902Z,1019.63
2017-01-23T03:32:29.916Z,1019.61
2017-01-23T03:33:29.928Z,1019.64
2017-01-23T03:34:29.941Z,1019.63
2017-01-23T03:35:29.954Z,1019.61
2017-01-23T03:36:29.968Z,1019.6
2017-01-23T03:37:29.981Z,1019.65
2017-01-23T03:39:30.009Z,1019.63
2017-01-23T03:40:30.020Z,1019.59
2017-01-23T03:41:30.033Z,1019.6
2017-01-23T03:42:30.046Z,1019.6
2017-01-23T03:43:30.060Z,1019.54
2017-01-23T03:44:30.072Z,1019.56
2017-01-23T03:45:30.085Z,1019.56
2017-01-23T03:46:30.099Z,1019.53
2017-01-23T03:47:30.112Z,1019.53
2017-01-23T03:48:30.125Z,1019.51
2017-01-23T03:49:30.138Z,1019.48
2017-01-23T03:50:30.151Z,1019.51
2017-01-23T03:51:30.165Z,1019.51
2017-01-23T03:52:30.178Z,1019.49
2017-01-23T03:54:30.206Z,1019.49
2017-01-23T03:55:30.217Z,1019.47
2017-01-23T03:56:30.230Z,1019.44
2017-01-23T03:57:30.244Z,1019.45
2017-01-23T03:58:30.257Z,1019.43
2017-01-23T03:59:30.269Z,1019.44
2017-01-23T04:00:30.283Z,1019.38
2017-01-23T04:01:30.296Z,1019.41
2017-01-23T04:02:30.308Z,1019.39
2017-01-23T04:03:30.321Z,1019.35
2017-01-23T04:04:30.334Z,1019.32
2017-01-23T04:05:30.350Z,1019.36
2017-01-23T04:06:30.360Z,1019.35
2017-01-23T04:07:30.373Z,1019.37
2017-01-23T04:08:30.387Z,1019.39
2017-01-23T04:09:30.403Z,1019.38
2017-01-23T04:10:30.412Z,1019.37
2017-01-23T04:11:30.425Z,1019.35
2017-01-23T04:12:30.438Z,1019.36
2017-01-23T04:13:30.452Z,1019.33
2017-01-23T04:14:30.463Z,1019.36
2017-01-23T04:15:30.477Z,1019.31
2017-01-23T04:16:30.490Z,1019.33
2017-01-23T04:17:30.502Z,1019.3
2017-01-23T04:18:30.515Z,1019.29
2017-01-23T04:19:30.529Z,1019.3
2017-01-23T04:20:30.542Z,1019.27
2017-01-23T04:21:30.554Z,1019.24
2017-01-23T04:22:30.568Z,1019.27
2017-01-23T04:23:30.581Z,1019.22
2017-01-23T04:24:30.596Z,1019.25
2017-01-23T04:26:30.620Z,1019.21
2017-01-23T04:27:30.633Z,1019.23
2017-01-23T04:28:30.645Z,1019.21
2017-01-23T04:29:30.658Z,1019.24
2017-01-23T04:30:30.672Z,1019.22
2017-01-23T04:31:30.684Z,1019.23
2017-01-23T04:32:30.698Z,1019.23
2017-01-23T04:33:30.710Z,1019.26
2017-01-23T04:34:30.723Z,1019.21
2017-01-23T04:35:30.736Z,1019.27
2017-01-23T04:36:30.749Z,1019.29
2017-01-23T04:37:30.762Z,1019.28
2017-01-23T04:38:30.775Z,1019.27
2017-01-23T04:39:30.788Z,1019.26
2017-01-23T04:40:30.803Z,1019.26
2017-01-23T04:42:30.853Z,1019.28
2017-01-23T04:43:30.840Z,1019.28
2017-01-23T04:44:30.853Z,1019.3
2017-01-23T04:45:30.866Z,1019.33
2017-01-23T04:46:30.879Z,1019.36
2017-01-23T04:47:30.892Z,1019.38
2017-01-23T04:48:31.055Z,1019.34
2017-01-23T04:49:30.919Z,1019.32
2017-01-23T04:50:30.930Z,1019.33
2017-01-23T04:51:30.944Z,1019.36
2017-01-23T04:52:30.957Z,1019.36
2017-01-23T04:53:30.970Z,1019.37
2017-01-23T04:54:30.983Z,1019.41
2017-01-23T04:55:30.996Z,1019.4
2017-01-23T04:56:31.011Z,1019.44
2017-01-23T04:58:31.034Z,1019.42
2017-01-23T04:59:31.047Z,1019.42
2017-01-23T05:00:31.060Z,1019.42
2017-01-23T05:01:31.073Z,1019.4
2017-01-23T05:02:31.086Z,1019.36
2017-01-23T05:03:31.100Z,1019.37
2017-01-23T05:04:31.113Z,1019.4
2017-01-23T05:05:31.125Z,1019.38
2017-01-23T05:06:31.159Z,1019.39
2017-01-23T05:07:31.152Z,1019.38
2017-01-23T05:08:31.166Z,1019.38
2017-01-23T05:09:31.202Z,1019.4
2017-01-23T05:10:31.190Z,1019.33
2017-01-23T05:11:31.204Z,1019.34
2017-01-23T05:12:31.216Z,1019.33
2017-01-23T05:14:31.243Z,1019.26
2017-01-23T05:15:31.257Z,1019.28
2017-01-23T05:16:31.268Z,1019.25
2017-01-23T05:17:31.281Z,1019.29
2017-01-23T05:18:31.299Z,1019.26
2017-01-23T05:19:31.307Z,1019.27
2017-01-23T05:20:31.324Z,1019.26
2017-01-23T05:21:31.334Z,1019.28
2017-01-23T05:22:31.347Z,1019.28
2017-01-23T05:23:31.359Z,1019.32
2017-01-23T05:24:31.373Z,1019.33
2017-01-23T05:25:31.386Z,1019.36
2017-01-23T05:26:31.398Z,1019.34
2017-01-23T05:27:31.413Z,1019.32
2017-01-23T05:29:31.441Z,1019.29
2017-01-23T05:30:31.451Z,1019.31
2017-01-23T05:31:31.464Z,1019.3
2017-01-23T05:32:31.479Z,1019.31
2017-01-23T05:33:31.491Z,1019.34
2017-01-23T05:34:31.504Z,1019.37
2017-01-23T05:35:31.516Z,1019.38
2017-01-23T05:36:31.530Z,1019.39
2017-01-23T05:37:31.542Z,1019.42
2017-01-23T05:38:31.555Z,1019.38
2017-01-23T05:39:31.569Z,1019.36
2017-01-23T05:40:31.582Z,1019.4
2017-01-23T05:41:31.594Z,1019.39
2017-01-23T05:42:31.607Z,1019.44
2017-01-23T05:43:31.620Z,1019.44
2017-01-23T05:44:31.634Z,1019.46
2017-01-23T05:45:31.647Z,1019.41
2017-01-23T05:46:31.659Z,1019.42
2017-01-23T05:47:31.673Z,1019.43
2017-01-23T05:48:31.684Z,1019.44
2017-01-23T05:49:31.698Z,1019.45
2017-01-23T05:50:31.711Z,1019.45
2017-01-23T05:51:31.724Z,1019.41
2017-01-23T05:52:31.736Z,1019.37
2017-01-23T05:53:31.750Z,1019.31
2017-01-23T05:54:31.763Z,1019.33
2017-01-23T05:55:31.776Z,1019.33
2017-01-23T05:56:31.788Z,1019.37
2017-01-23T05:57:31.801Z,1019.35
2017-01-23T05:58:31.815Z,1019.35
2017-01-23T05:59:31.827Z,1019.39
2017-01-23T06:01:31.853Z,1019.37
2017-01-23T06:02:31.867Z,1019.34
2017-01-23T06:03:31.879Z,1019.32
2017-01-23T06:04:31.893Z,1019.34
2017-01-23T06:05:31.906Z,1019.29
2017-01-23T06:06:31.920Z,1019.32
2017-01-23T06:07:31.932Z,1019.3
2017-01-23T06:08:31.944Z,1019.32
2017-01-23T06:09:31.958Z,1019.27
2017-01-23T06:10:31.973Z,1019.28
2017-01-23T06:11:31.983Z,1019.32
2017-01-23T06:12:31.997Z,1019.34
2017-01-23T06:13:32.010Z,1019.36
2017-01-23T06:14:32.022Z,1019.34
2017-01-23T06:15:32.035Z,1019.33
2017-01-23T06:17:32.062Z,1019.33
2017-01-23T06:18:32.074Z,1019.34
2017-01-23T06:19:32.087Z,1019.29
2017-01-23T06:20:32.100Z,1019.36
2017-01-23T06:21:32.118Z,1019.33
2017-01-23T06:22:32.125Z,1019.35
2017-01-23T06:23:32.140Z,1019.34
2017-01-23T06:24:32.152Z,1019.33
2017-01-23T06:25:32.165Z,1019.33
2017-01-23T06:26:32.178Z,1019.36
2017-01-23T06:27:32.191Z,1019.36
2017-01-23T06:28:32.204Z,1019.36
2017-01-23T06:29:32.216Z,1019.36
2017-01-23T06:30:32.230Z,1019.37
2017-01-23T06:31:32.243Z,1019.38
2017-01-23T06:33:32.270Z,1019.42
2017-01-23T06:34:32.282Z,1019.42
2017-01-23T06:35:32.295Z,1019.43
2017-01-23T06:36:32.309Z,1019.42
2017-01-23T06:37:32.322Z,1019.46
2017-01-23T06:38:32.334Z,1019.43
2017-01-23T06:39:32.347Z,1019.41
2017-01-23T06:40:32.360Z,1019.44
2017-01-23T06:41:32.373Z,1019.42
2017-01-23T06:42:32.386Z,1019.48
2017-01-23T06:43:32.399Z,1019.51
2017-01-23T06:44:32.439Z,1019.51
2017-01-23T06:45:32.427Z,1019.48
2017-01-23T06:46:32.438Z,1019.47
2017-01-23T06:47:32.451Z,1019.49
2017-01-23T06:49:32.479Z,1019.54
2017-01-23T06:50:32.492Z,1019.49
2017-01-23T06:51:32.503Z,1019.47
2017-01-23T06:52:32.517Z,1019.47
2017-01-23T06:53:32.529Z,1019.5
2017-01-23T06:54:32.565Z,1019.46
2017-01-23T06:55:32.555Z,1019.5
2017-01-23T06:56:32.569Z,1019.49
2017-01-23T06:57:32.582Z,1019.46
2017-01-23T06:58:32.595Z,1019.46
2017-01-23T06:59:32.608Z,1019.51
2017-01-23T07:00:32.622Z,1019.46
2017-01-23T07:01:32.635Z,1019.47
2017-01-23T07:02:32.667Z,1019.45
2017-01-23T07:04:32.675Z,1019.48
2017-01-23T07:05:32.687Z,1019.48
2017-01-23T07:06:32.701Z,1019.51
2017-01-23T07:07:32.714Z,1019.48
2017-01-23T07:08:32.728Z,1019.5
2017-01-23T07:09:32.740Z,1019.54
2017-01-23T07:10:32.755Z,1019.52
2017-01-23T07:11:32.767Z,1019.57
2017-01-23T07:12:32.781Z,1019.55
2017-01-23T07:13:32.792Z,1019.57
2017-01-23T07:14:32.806Z,1019.57
2017-01-23T07:15:32.819Z,1019.53
2017-01-23T07:16:32.831Z,1019.56
2017-01-23T07:17:32.845Z,1019.57
2017-01-23T07:18:32.859Z,1019.59
2017-01-23T07:19:32.872Z,1019.57
2017-01-23T07:20:32.885Z,1019.57
2017-01-23T07:21:32.898Z,1019.56
2017-01-23T07:22:32.911Z,1019.55
2017-01-23T07:23:32.924Z,1019.56
2017-01-23T07:24:32.937Z,1019.54
2017-01-23T07:25:32.951Z,1019.49
2017-01-23T07:26:32.964Z,1019.51
2017-01-23T07:27:32.976Z,1019.52
2017-01-23T07:28:32.990Z,1019.54
2017-01-23T07:29:33.006Z,1019.47
2017-01-23T07:30:33.017Z,1019.51
2017-01-23T07:31:33.029Z,1019.5
2017-01-23T07:32:33.047Z,1019.54
2017-01-23T07:33:33.056Z,1019.54
2017-01-23T07:34:33.068Z,1019.51
2017-01-23T07:36:33.096Z,1019.52
2017-01-23T07:37:33.109Z,1019.52
2017-01-23T07:38:33.123Z,1019.52
2017-01-23T07:39:33.135Z,1019.55
2017-01-23T07:40:33.148Z,1019.52
2017-01-23T07:41:33.161Z,1019.51
2017-01-23T07:42:33.175Z,1019.53
2017-01-23T07:43:33.187Z,1019.57
2017-01-23T07:44:33.201Z,1019.57
2017-01-23T07:45:33.215Z,1019.54
2017-01-23T07:46:33.227Z,1019.6
2017-01-23T07:47:33.241Z,1019.59
2017-01-23T07:48:33.254Z,1019.59
2017-01-23T07:49:33.268Z,1019.57
2017-01-23T07:50:33.281Z,1019.61
2017-01-23T07:52:33.308Z,1019.6
2017-01-23T07:53:33.320Z,1019.62
2017-01-23T07:54:33.334Z,1019.62
2017-01-23T07:55:33.347Z,1019.6
2017-01-23T07:56:33.360Z,1019.59
2017-01-23T07:57:33.373Z,1019.6
2017-01-23T07:58:33.388Z,1019.66
2017-01-23T07:59:33.400Z,1019.67
2017-01-23T08:00:33.413Z,1019.7
2017-01-23T08:01:33.427Z,1019.7
2017-01-23T08:02:33.440Z,1019.7
2017-01-23T08:03:33.454Z,1019.7
2017-01-23T08:04:33.467Z,1019.73
2017-01-23T08:05:33.479Z,1019.73
2017-01-23T08:06:33.492Z,1019.75
2017-01-23T08:08:33.518Z,1019.73
2017-01-23T08:09:33.532Z,1019.74
2017-01-23T08:10:33.545Z,1019.7
2017-01-23T08:11:33.557Z,1019.69
2017-01-23T08:12:33.570Z,1019.7
2017-01-23T08:13:33.585Z,1019.67
2017-01-23T08:14:33.598Z,1019.66
2017-01-23T08:15:33.611Z,1019.67
2017-01-23T08:16:33.626Z,1019.68
2017-01-23T08:17:33.637Z,1019.69
2017-01-23T08:18:33.650Z,1019.7
2017-01-23T08:19:33.662Z,1019.74
2017-01-23T08:20:33.676Z,1019.67
2017-01-23T08:21:33.691Z,1019.66
2017-01-23T08:22:33.703Z,1019.67
2017-01-23T08:24:33.729Z,1019.72
2017-01-23T08:25:33.743Z,1019.76
2017-01-23T08:26:33.756Z,1019.79
2017-01-23T08:27:33.769Z,1019.75
2017-01-23T08:28:33.782Z,1019.75
2017-01-23T08:29:33.795Z,1019.76
2017-01-23T08:30:33.808Z,1019.76
2017-01-23T08:31:33.822Z,1019.76
2017-01-23T08:32:33.835Z,1019.75
2017-01-23T08:33:33.848Z,1019.78
2017-01-23T08:34:33.863Z,1019.78
2017-01-23T08:35:33.874Z,1019.76
2017-01-23T08:36:33.888Z,1019.78
2017-01-23T08:37:33.904Z,1019.76
2017-01-23T08:39:33.928Z,1019.76
2017-01-23T08:40:33.941Z,1019.79
2017-01-23T08:41:33.953Z,1019.74
2017-01-23T08:42:33.967Z,1019.77
2017-01-23T08:43:33.980Z,1019.81
2017-01-23T08:44:33.993Z,1019.8
2017-01-23T08:45:34.011Z,1019.78
2017-01-23T08:46:34.020Z,1019.83
2017-01-23T08:47:34.032Z,1019.83
2017-01-23T08:48:34.046Z,1019.81
2017-01-23T08:49:34.061Z,1019.83
2017-01-23T08:50:34.073Z,1019.85
2017-01-23T08:51:34.085Z,1019.86
2017-01-23T08:52:34.099Z,1019.87
2017-01-23T08:53:34.112Z,1019.89
2017-01-23T08:54:34.125Z,1019.92
2017-01-23T08:55:34.138Z,1019.93
2017-01-23T08:56:34.153Z,1020.01
2017-01-23T08:57:34.165Z,1020.02
2017-01-23T08:58:34.178Z,1020.03
2017-01-23T08:59:34.192Z,1019.97
2017-01-23T09:00:34.206Z,1019.99
2017-01-23T09:01:34.218Z,1020
2017-01-23T09:02:34.232Z,1020.02
2017-01-23T09:03:34.245Z,1019.98
2017-01-23T09:04:34.258Z,1020.05
2017-01-23T09:05:34.272Z,1020.07
2017-01-23T09:06:34.285Z,1020.05
2017-01-23T09:07:34.297Z,1020.06
2017-01-23T09:08:34.311Z,1020.06
2017-01-23T09:09:34.324Z,1020.02
2017-01-23T09:11:34.351Z,1020.01
2017-01-23T09:12:34.364Z,1020
2017-01-23T09:13:34.377Z,1019.98
2017-01-23T09:14:34.392Z,1020.03
2017-01-23T09:15:34.405Z,1019.99
2017-01-23T09:16:34.418Z,1020.01
2017-01-23T09:17:34.437Z,1020
2017-01-23T09:18:34.444Z,1020
2017-01-23T09:19:34.458Z,1020.02
2017-01-23T09:20:34.470Z,1020.07
2017-01-23T09:21:34.486Z,1020.06
2017-01-23T09:22:34.498Z,1020.07
2017-01-23T09:23:34.511Z,1020.06
2017-01-23T09:24:34.523Z,1020.05
2017-01-23T09:25:34.537Z,1020.03
2017-01-23T09:27:34.563Z,1020.05
2017-01-23T09:28:34.576Z,1020.01
2017-01-23T09:29:34.590Z,1020.03
2017-01-23T09:30:34.603Z,1020.03
2017-01-23T09:31:34.615Z,1020.02
2017-01-23T09:32:34.629Z,1020.02
2017-01-23T09:33:34.642Z,1019.99
2017-01-23T09:34:34.658Z,1019.96
2017-01-23T09:35:34.671Z,1019.97
2017-01-23T09:36:34.683Z,1019.95
2017-01-23T09:37:34.696Z,1019.97
2017-01-23T09:38:34.709Z,1019.95
2017-01-23T09:39:34.721Z,1019.94
2017-01-23T09:40:34.735Z,1020.01
2017-01-23T09:41:34.748Z,1019.98
2017-01-23T09:43:34.774Z,1019.94
2017-01-23T09:44:34.788Z,1019.98
2017-01-23T09:45:34.806Z,1020
2017-01-23T09:46:34.814Z,1019.97
2017-01-23T09:47:34.828Z,1019.95
2017-01-23T09:48:34.841Z,1019.91
2017-01-23T09:49:34.855Z,1019.99
2017-01-23T09:50:34.868Z,1020.03
2017-01-23T09:51:34.881Z,1020
2017-01-23T09:52:34.896Z,1019.99
2017-01-23T09:53:34.907Z,1019.99
2017-01-23T09:54:34.920Z,1020.04
2017-01-23T09:55:34.935Z,1020.05
2017-01-23T09:56:34.948Z,1020.03
2017-01-23T09:57:34.961Z,1020.06
2017-01-23T09:59:34.988Z,1020.07
2017-01-23T10:00:35.000Z,1020.05
2017-01-23T10:01:35.013Z,1020.06
2017-01-23T10:02:35.029Z,1020.05
2017-01-23T10:03:35.040Z,1020.01
2017-01-23T10:04:35.053Z,1020.02
2017-01-23T10:05:35.066Z,1019.97
2017-01-23T10:06:35.080Z,1019.96
2017-01-23T10:07:35.093Z,1020.02
2017-01-23T10:08:35.105Z,1020.02
2017-01-23T10:09:35.119Z,1019.94
2017-01-23T10:10:35.133Z,1019.94
2017-01-23T10:11:35.146Z,1019.97
2017-01-23T10:12:35.160Z,1019.96
2017-01-23T10:14:35.187Z,1019.94
2017-01-23T10:15:35.199Z,1019.9
2017-01-23T10:16:35.213Z,1019.88
2017-01-23T10:17:35.226Z,1019.89
2017-01-23T10:18:35.240Z,1019.88
2017-01-23T10:19:35.251Z,1019.91
2017-01-23T10:20:35.266Z,1019.88
2017-01-23T10:21:35.280Z,1019.88
2017-01-23T10:22:35.291Z,1019.88
2017-01-23T10:23:35.305Z,1019.9
2017-01-23T10:24:35.320Z,1019.9
2017-01-23T10:25:35.337Z,1019.89
2017-01-23T10:26:35.345Z,1019.95
2017-01-23T10:27:35.359Z,1019.93
2017-01-23T10:28:35.372Z,1019.94
2017-01-23T10:29:35.385Z,1020
2017-01-23T10:30:35.400Z,1020
2017-01-23T10:31:35.412Z,1019.96
2017-01-23T10:32:35.427Z,1019.96
2017-01-23T10:33:35.441Z,1019.96
2017-01-23T10:34:35.452Z,1019.94
2017-01-23T10:35:35.468Z,1019.94
2017-01-23T10:36:35.479Z,1019.92
2017-01-23T10:37:35.495Z,1019.97
2017-01-23T10:38:35.505Z,1019.94
2017-01-23T10:39:35.518Z,1019.95
2017-01-23T10:40:35.541Z,1019.95
2017-01-23T10:41:35.546Z,1020.01
2017-01-23T10:42:35.558Z,1019.95
2017-01-23T10:43:35.572Z,1019.97
2017-01-23T10:44:35.590Z,1020
2017-01-23T10:46:35.612Z,1019.99
2017-01-23T10:47:35.625Z,1020.01
2017-01-23T10:48:35.637Z,1020.04
2017-01-23T10:49:35.652Z,1019.95
2017-01-23T10:50:35.666Z,1020
2017-01-23T10:51:35.679Z,1019.97
2017-01-23T10:52:35.692Z,1020
2017-01-23T10:53:35.705Z,1019.99
2017-01-23T10:54:35.719Z,1019.98
2017-01-23T10:55:35.731Z,1019.99
2017-01-23T10:56:35.767Z,1020.01
2017-01-23T10:57:35.761Z,1020.03
2017-01-23T10:58:35.777Z,1019.93
2017-01-23T10:59:35.783Z,1019.96
2017-01-23T11:00:35.798Z,1020.03
2017-01-23T11:02:35.825Z,1019.99
2017-01-23T11:03:35.837Z,1019.94
2017-01-23T11:04:35.851Z,1019.94
2017-01-23T11:05:35.865Z,1019.93
2017-01-23T11:06:35.877Z,1019.94
2017-01-23T11:07:35.891Z,1019.91
2017-01-23T11:08:35.905Z,1019.89
2017-01-23T11:09:35.917Z,1019.91
2017-01-23T11:10:35.930Z,1019.88
2017-01-23T11:11:35.945Z,1019.84
2017-01-23T11:12:35.958Z,1019.87
2017-01-23T11:13:35.974Z,1019.82
2017-01-23T11:14:35.986Z,1019.86
2017-01-23T11:15:36.000Z,1019.86
2017-01-23T11:16:36.011Z,1019.85
2017-01-23T11:18:36.039Z,1019.84
2017-01-23T11:19:36.052Z,1019.84
2017-01-23T11:20:36.065Z,1019.89
2017-01-23T11:21:36.077Z,1019.86
2017-01-23T11:22:36.091Z,1019.88
2017-01-23T11:23:36.104Z,1019.92
2017-01-23T11:24:36.119Z,1019.83
2017-01-23T11:25:36.134Z,1019.8
2017-01-23T11:26:36.144Z,1019.82
2017-01-23T11:27:36.159Z,1019.74
2017-01-23T11:28:36.171Z,1019.76
2017-01-23T11:29:36.187Z,1019.72
2017-01-23T11:30:36.201Z,1019.79
2017-01-23T11:31:36.212Z,1019.71
2017-01-23T11:32:36.225Z,1019.72
2017-01-23T11:34:36.252Z,1019.7
2017-01-23T11:35:36.265Z,1019.73
2017-01-23T11:36:36.278Z,1019.72
2017-01-23T11:37:36.292Z,1019.72
2017-01-23T11:38:36.305Z,1019.7
2017-01-23T11:39:36.319Z,1019.7
2017-01-23T11:40:36.331Z,1019.73
2017-01-23T11:41:36.347Z,1019.69
2017-01-23T11:42:36.359Z,1019.72
2017-01-23T11:43:36.371Z,1019.7
2017-01-23T11:44:36.385Z,1019.68
2017-01-23T11:45:36.399Z,1019.67
2017-01-23T11:46:36.413Z,1019.69
2017-01-23T11:47:36.427Z,1019.68
2017-01-23T11:49:36.455Z,1019.69
2017-01-23T11:50:36.466Z,1019.68
2017-01-23T11:51:36.481Z,1019.69
2017-01-23T11:52:36.494Z,1019.68
2017-01-23T11:53:36.508Z,1019.69
2017-01-23T11:54:36.521Z,1019.71
2017-01-23T11:55:36.535Z,1019.69
2017-01-23T11:56:36.548Z,1019.68
2017-01-23T11:57:36.562Z,1019.67
2017-01-23T11:58:36.575Z,1019.63
2017-01-23T11:59:36.590Z,1019.66
2017-01-23T12:00:36.604Z,1019.63
2017-01-23T12:01:36.616Z,1019.63
2017-01-23T12:02:36.630Z,1019.65
2017-01-23T12:03:36.644Z,1019.64
2017-01-23T12:04:36.659Z,1019.63
2017-01-23T12:05:36.670Z,1019.63
2017-01-23T12:06:36.684Z,1019.64
2017-01-23T12:07:36.698Z,1019.66
2017-01-23T12:08:36.712Z,1019.59
2017-01-23T12:09:36.725Z,1019.62
2017-01-23T12:10:36.738Z,1019.6
2017-01-23T12:11:36.752Z,1019.6
2017-01-23T12:12:36.766Z,1019.64
2017-01-23T12:13:36.780Z,1019.57
2017-01-23T12:14:36.793Z,1019.58
2017-01-23T12:15:36.808Z,1019.56
2017-01-23T12:16:36.820Z,1019.57
2017-01-23T12:17:36.834Z,1019.59
2017-01-23T12:18:36.848Z,1019.62
2017-01-23T12:19:36.862Z,1019.59
2017-01-23T12:21:36.889Z,1019.59
2017-01-23T12:22:36.904Z,1019.6
2017-01-23T12:23:36.917Z,1019.56
2017-01-23T12:24:36.951Z,1019.62
2017-01-23T12:25:36.944Z,1019.55
2017-01-23T12:26:36.957Z,1019.52
2017-01-23T12:27:36.970Z,1019.5
2017-01-23T12:28:36.984Z,1019.52
2017-01-23T12:29:36.999Z,1019.48
2017-01-23T12:30:37.011Z,1019.48
2017-01-23T12:31:37.028Z,1019.46
2017-01-23T12:32:37.039Z,1019.46
2017-01-23T12:33:37.052Z,1019.42
2017-01-23T12:34:37.067Z,1019.41
2017-01-23T12:35:37.080Z,1019.44
2017-01-23T12:37:37.108Z,1019.48
2017-01-23T12:38:37.121Z,1019.48
2017-01-23T12:39:37.134Z,1019.44
2017-01-23T12:40:37.148Z,1019.43
2017-01-23T12:41:37.161Z,1019.44
2017-01-23T12:42:37.174Z,1019.43
2017-01-23T12:43:37.188Z,1019.47
2017-01-23T12:44:37.202Z,1019.43
2017-01-23T12:45:37.215Z,1019.41
2017-01-23T12:46:37.229Z,1019.42
2017-01-23T12:47:37.242Z,1019.4
2017-01-23T12:48:37.256Z,1019.41
2017-01-23T12:49:37.269Z,1019.44